Red Avel — FAE6551 — position and weather

sailwx.info

Track history (hours):
 
Tides and Currents Weather Stations Pressure Air Temp Water Temp Dewpoint Dewpoint Depression Visibility Wind Speed Wind Dir Waves Ship Positions

Red Avel

Last reported at 2018-Jun-18 09:27 UTC. Time now 2018-Jun-19 02:58 UTC.
Position N 47°42' W 003°33'.

Length 10 m.

Type: Sailing vessel. MMSI: 227498870.

Date/timePositionNaut miles runAvg speedWind from/ knotsBaromVisibWave heightAir tempDewpointWater temp
2018-Jun-18 09:27N 47°42' W 003°33'2 5.0
2018-Jun-18 08:57N 47°41' W 003°29'2 4.8
2018-Jun-18 08:30N 47°40' W 003°26'3 7.1
2018-Jun-18 08:00N 47°43' W 003°22'1 1.1
2018-Jun-18 07:28N 47°43' W 003°22'0 0.0
2018-Jun-18 06:58N 47°43' W 003°22'0 0.0
2018-Jun-18 06:28N 47°43' W 003°22'0 0.0
2018-Jun-18 05:58N 47°43' W 003°22'0 0.0
2018-Jun-18 05:28N 47°43' W 003°22'0 0.0
2018-Jun-18 04:58N 47°43' W 003°22'0 0.0
2018-Jun-18 04:28N 47°43' W 003°22'0 0.0
2018-Jun-18 03:58N 47°43' W 003°22'0 0.0
2018-Jun-18 03:28N 47°43' W 003°22'0 0.0
2018-Jun-18 02:58N 47°43' W 003°22'0 0.0
2018-Jun-18 02:28N 47°43' W 003°22'0 0.0
2018-Jun-18 01:58N 47°43' W 003°22'0 0.0
2018-Jun-18 01:28N 47°43' W 003°22'0 0.0
2018-Jun-18 00:58N 47°43' W 003°22'0 0.0
2018-Jun-18 00:28N 47°43' W 003°22'0 0.0
2018-Jun-17 23:58N 47°43' W 003°22'0 0.0
2018-Jun-17 23:28N 47°43' W 003°22'0 0.0
2018-Jun-17 22:58N 47°43' W 003°22'0 0.0
2018-Jun-17 22:28N 47°43' W 003°22'0 0.0
2018-Jun-17 21:58N 47°43' W 003°22'0 0.0
2018-Jun-17 21:28N 47°43' W 003°22'0 0.0
2018-Jun-17 20:58N 47°43' W 003°22'0 0.0
2018-Jun-17 20:28N 47°43' W 003°22'0 0.0
2018-Jun-17 19:58N 47°43' W 003°22'0 0.0
2018-Jun-17 19:28N 47°43' W 003°22'0 0.0
2018-Jun-17 18:58N 47°43' W 003°22'0 0.0
2018-Jun-17 18:28N 47°43' W 003°22'0 0.0
2018-Jun-17 17:58N 47°43' W 003°22'0 0.0
2018-Jun-17 17:28N 47°43' W 003°22'0 0.0
2018-Jun-17 16:58N 47°43' W 003°22'0 0.0
2018-Jun-17 16:28N 47°43' W 003°22'0 0.0
2018-Jun-17 15:58N 47°43' W 003°22'0 0.0
2018-Jun-17 15:28N 47°43' W 003°22'0 0.0
2018-Jun-17 14:58N 47°43' W 003°22'0 0.0
2018-Jun-17 14:28N 47°43' W 003°22'0 0.0
2018-Jun-17 13:58N 47°43' W 003°22'0 0.0
2018-Jun-17 13:28N 47°43' W 003°22'0 0.0
2018-Jun-17 12:58N 47°43' W 003°22'0 0.2
2018-Jun-17 12:29N 47°43' W 003°22'0 0.0
2018-Jun-17 11:59N 47°43' W 003°22'0 0.1
2018-Jun-17 11:30N 47°43' W 003°22'2 3.7
2018-Jun-17 11:00N 47°41' W 003°22'5 9.2
2018-Jun-17 10:30N 47°37' W 003°19'5 9.8
2018-Jun-17 10:00N 47°33' W 003°15'5 9.0
2018-Jun-17 09:29N 47°30' W 003°11'5 9.1
2018-Jun-17 08:59N 47°26' W 003°06'3 6.1
2018-Jun-17 08:30N 47°27' W 003°02'4 6.8
2018-Jun-17 07:57N 47°30' W 002°58'3 6.5
2018-Jun-17 07:27N 47°32' W 002°55'1 1.5
2018-Jun-17 06:58N 47°33' W 002°54'0 0.0
2018-Jun-17 06:25N 47°33' W 002°54'0 0.0
2018-Jun-17 05:55N 47°33' W 002°54'0 0.0
2018-Jun-17 05:28N 47°33' W 002°54'0 0.0
2018-Jun-17 04:55N 47°33' W 002°54'0 0.0
2018-Jun-17 04:22N 47°33' W 002°54'0 0.0
2018-Jun-17 03:52N 47°33' W 002°54'0 0.0
2018-Jun-17 03:22N 47°33' W 002°54'0 0.0
2018-Jun-17 02:22N 47°33' W 002°54'0 0.0
2018-Jun-17 01:58N 47°33' W 002°54'0 0.0
2018-Jun-17 01:28N 47°33' W 002°54'0 0.0
2018-Jun-17 00:58N 47°33' W 002°54'0 0.0
2018-Jun-17 00:28N 47°33' W 002°54'0 0.0
2018-Jun-16 23:58N 47°33' W 002°54'0 0.0
2018-Jun-16 23:22N 47°33' W 002°54'0 0.0
2018-Jun-16 22:52N 47°33' W 002°54'0 0.0
2018-Jun-16 22:25N 47°33' W 002°54'0 0.0
2018-Jun-16 21:58N 47°33' W 002°54'0 0.0
2018-Jun-16 21:28N 47°33' W 002°54'0 0.0
2018-Jun-16 20:40N 47°33' W 002°54'0 0.0
2018-Jun-16 20:22N 47°33' W 002°54'0 0.0
2018-Jun-16 19:52N 47°33' W 002°54'0 0.0
2018-Jun-16 19:19N 47°33' W 002°54'0 0.0
2018-Jun-16 18:58N 47°33' W 002°54'0 0.0
2018-Jun-16 18:28N 47°33' W 002°54'0 0.0
2018-Jun-16 17:58N 47°33' W 002°54'0 0.0
2018-Jun-16 17:28N 47°33' W 002°54'0 0.0
2018-Jun-16 16:52N 47°33' W 002°54'0 0.0
2018-Jun-16 16:25N 47°33' W 002°54'0 0.0
2018-Jun-16 15:58N 47°33' W 002°54'0 0.0
2018-Jun-16 15:28N 47°33' W 002°54'0 0.1
2018-Jun-16 14:52N 47°33' W 002°54'2 4.2
2018-Jun-16 14:28N 47°31' W 002°56'3 6.7
2018-Jun-16 13:59N 47°33' W 002°60'3 0.1
2018-Jun-15 13:25N 47°35' W 003°01'1 1.8
2018-Jun-15 12:52N 47°34' W 003°01'0 0.0
2018-Jun-15 12:25N 47°34' W 003°01'0 0.0
2018-Jun-15 11:10N 47°34' W 003°01'0 0.0
2018-Jun-15 10:55N 47°34' W 003°01'0 0.0
2018-Jun-15 10:27N 47°34' W 003°01'  
2018-Jun-09 16:39N 47°35' W 003°01'1 2.5
2018-Jun-09 16:27N 47°35' W 003°01'1 3.2
2018-Jun-09 16:01N 47°34' W 003°01'5 4.7
2018-Jun-09 15:01N 47°31' W 003°07'2 4.2
2018-Jun-09 14:30N 47°32' W 003°04'3 5.3
2018-Jun-09 14:00N 47°34' W 003°01'1 2.9
2018-Jun-09 13:30N 47°35' W 003°01'  
Track history (hours):
 
Tides and Currents Weather Stations Pressure Air Temp Water Temp Dewpoint Dewpoint Depression Visibility Wind Speed Wind Dir Waves Ship Positions

Red Avel

Last reported at 2018-Jun-18 09:27 UTC. Time now 2018-Jun-19 02:58 UTC.
Position N 47°42' W 003°33'.

Length 10 m.

Type: Sailing vessel. MMSI: 227498870.

Date/timePositionNaut miles runAvg speedWind from/ knotsBaromVisibWave heightAir tempDewpointWater temp
2018-Jun-18 09:27N 47°42' W 003°33'2 5.0
2018-Jun-18 08:57N 47°41' W 003°29'2 4.8
2018-Jun-18 08:30N 47°40' W 003°26'3 7.1
2018-Jun-18 08:00N 47°43' W 003°22'1 1.1
2018-Jun-18 07:28N 47°43' W 003°22'0 0.0
2018-Jun-18 06:58N 47°43' W 003°22'0 0.0
2018-Jun-18 06:28N 47°43' W 003°22'0 0.0
2018-Jun-18 05:58N 47°43' W 003°22'0 0.0
2018-Jun-18 05:28N 47°43' W 003°22'0 0.0
2018-Jun-18 04:58N 47°43' W 003°22'0 0.0
2018-Jun-18 04:28N 47°43' W 003°22'0 0.0
2018-Jun-18 03:58N 47°43' W 003°22'0 0.0
2018-Jun-18 03:28N 47°43' W 003°22'0 0.0
2018-Jun-18 02:58N 47°43' W 003°22'0 0.0
2018-Jun-18 02:28N 47°43' W 003°22'0 0.0
2018-Jun-18 01:58N 47°43' W 003°22'0 0.0
2018-Jun-18 01:28N 47°43' W 003°22'0 0.0
2018-Jun-18 00:58N 47°43' W 003°22'0 0.0
2018-Jun-18 00:28N 47°43' W 003°22'0 0.0
2018-Jun-17 23:58N 47°43' W 003°22'0 0.0
2018-Jun-17 23:28N 47°43' W 003°22'0 0.0
2018-Jun-17 22:58N 47°43' W 003°22'0 0.0
2018-Jun-17 22:28N 47°43' W 003°22'0 0.0
2018-Jun-17 21:58N 47°43' W 003°22'0 0.0
2018-Jun-17 21:28N 47°43' W 003°22'0 0.0
2018-Jun-17 20:58N 47°43' W 003°22'0 0.0
2018-Jun-17 20:28N 47°43' W 003°22'0 0.0
2018-Jun-17 19:58N 47°43' W 003°22'0 0.0
2018-Jun-17 19:28N 47°43' W 003°22'0 0.0
2018-Jun-17 18:58N 47°43' W 003°22'0 0.0
2018-Jun-17 18:28N 47°43' W 003°22'0 0.0
2018-Jun-17 17:58N 47°43' W 003°22'0 0.0
2018-Jun-17 17:28N 47°43' W 003°22'0 0.0
2018-Jun-17 16:58N 47°43' W 003°22'0 0.0
2018-Jun-17 16:28N 47°43' W 003°22'0 0.0
2018-Jun-17 15:58N 47°43' W 003°22'0 0.0
2018-Jun-17 15:28N 47°43' W 003°22'0 0.0
2018-Jun-17 14:58N 47°43' W 003°22'0 0.0
2018-Jun-17 14:28N 47°43' W 003°22'0 0.0
2018-Jun-17 13:58N 47°43' W 003°22'0 0.0
2018-Jun-17 13:28N 47°43' W 003°22'0 0.0
2018-Jun-17 12:58N 47°43' W 003°22'0 0.2
2018-Jun-17 12:29N 47°43' W 003°22'0 0.0
2018-Jun-17 11:59N 47°43' W 003°22'0 0.1
2018-Jun-17 11:30N 47°43' W 003°22'2 3.7
2018-Jun-17 11:00N 47°41' W 003°22'5 9.2
2018-Jun-17 10:30N 47°37' W 003°19'5 9.8
2018-Jun-17 10:00N 47°33' W 003°15'5 9.0
2018-Jun-17 09:29N 47°30' W 003°11'5 9.1
2018-Jun-17 08:59N 47°26' W 003°06'3 6.1
2018-Jun-17 08:30N 47°27' W 003°02'4 6.8
2018-Jun-17 07:57N 47°30' W 002°58'3 6.5
2018-Jun-17 07:27N 47°32' W 002°55'1 1.5
2018-Jun-17 06:58N 47°33' W 002°54'0 0.0
2018-Jun-17 06:25N 47°33' W 002°54'0 0.0
2018-Jun-17 05:55N 47°33' W 002°54'0 0.0
2018-Jun-17 05:28N 47°33' W 002°54'0 0.0
2018-Jun-17 04:55N 47°33' W 002°54'0 0.0
2018-Jun-17 04:22N 47°33' W 002°54'0 0.0
2018-Jun-17 03:52N 47°33' W 002°54'0 0.0
2018-Jun-17 03:22N 47°33' W 002°54'0 0.0
2018-Jun-17 02:22N 47°33' W 002°54'0 0.0
2018-Jun-17 01:58N 47°33' W 002°54'0 0.0
2018-Jun-17 01:28N 47°33' W 002°54'0 0.0
2018-Jun-17 00:58N 47°33' W 002°54'0 0.0
2018-Jun-17 00:28N 47°33' W 002°54'0 0.0
2018-Jun-16 23:58N 47°33' W 002°54'0 0.0
2018-Jun-16 23:22N 47°33' W 002°54'0 0.0
2018-Jun-16 22:52N 47°33' W 002°54'0 0.0
2018-Jun-16 22:25N 47°33' W 002°54'0 0.0
2018-Jun-16 21:58N 47°33' W 002°54'0 0.0
2018-Jun-16 21:28N 47°33' W 002°54'0 0.0
2018-Jun-16 20:40N 47°33' W 002°54'0 0.0
2018-Jun-16 20:22N 47°33' W 002°54'0 0.0
2018-Jun-16 19:52N 47°33' W 002°54'0 0.0
2018-Jun-16 19:19N 47°33' W 002°54'0 0.0
2018-Jun-16 18:58N 47°33' W 002°54'0 0.0
2018-Jun-16 18:28N 47°33' W 002°54'0 0.0
2018-Jun-16 17:58N 47°33' W 002°54'0 0.0
2018-Jun-16 17:28N 47°33' W 002°54'0 0.0
2018-Jun-16 16:52N 47°33' W 002°54'0 0.0
2018-Jun-16 16:25N 47°33' W 002°54'0 0.0
2018-Jun-16 15:58N 47°33' W 002°54'0 0.0
2018-Jun-16 15:28N 47°33' W 002°54'0 0.1
2018-Jun-16 14:52N 47°33' W 002°54'2 4.2
2018-Jun-16 14:28N 47°31' W 002°56'3 6.7
2018-Jun-16 13:59N 47°33' W 002°60'3 0.1
2018-Jun-15 13:25N 47°35' W 003°01'1 1.8
2018-Jun-15 12:52N 47°34' W 003°01'0 0.0
2018-Jun-15 12:25N 47°34' W 003°01'0 0.0
2018-Jun-15 11:10N 47°34' W 003°01'0 0.0
2018-Jun-15 10:55N 47°34' W 003°01'0 0.0
2018-Jun-15 10:27N 47°34' W 003°01'  
2018-Jun-09 16:39N 47°35' W 003°01'1 2.5
2018-Jun-09 16:27N 47°35' W 003°01'1 3.2
2018-Jun-09 16:01N 47°34' W 003°01'5 4.7
2018-Jun-09 15:01N 47°31' W 003°07'2 4.2
2018-Jun-09 14:30N 47°32' W 003°04'3 5.3
2018-Jun-09 14:00N 47°34' W 003°01'1 2.9
2018-Jun-09 13:30N 47°35' W 003°01'  

Dump ship's entire track history